sensor_id;sensor_type;location;lat;lon;timestamp;P1;durP1;ratioP1;P2;durP2;ratioP2
3085;SDS011;52812;48.960;9.108;2023-08-24T00:00:20;13.93;;;10.53;;
3085;SDS011;52812;48.960;9.108;2023-08-24T00:02:46;14.87;;;10.73;;
3085;SDS011;52812;48.960;9.108;2023-08-24T00:05:12;11.07;;;9.87;;
3085;SDS011;52812;48.960;9.108;2023-08-24T00:07:38;11.93;;;9.13;;
3085;SDS011;52812;48.960;9.108;2023-08-24T00:10:04;11.43;;;10.23;;
3085;SDS011;52812;48.960;9.108;2023-08-24T00:12:29;11.53;;;9.73;;
3085;SDS011;52812;48.960;9.108;2023-08-24T00:14:55;9.57;;;8.63;;
3085;SDS011;52812;48.960;9.108;2023-08-24T00:17:21;11.60;;;9.60;;
3085;SDS011;52812;48.960;9.108;2023-08-24T00:19:48;9.53;;;8.53;;
3085;SDS011;52812;48.960;9.108;2023-08-24T00:22:13;11.50;;;9.60;;
3085;SDS011;52812;48.960;9.108;2023-08-24T00:24:39;10.73;;;9.07;;
3085;SDS011;52812;48.960;9.108;2023-08-24T00:27:04;11.00;;;9.90;;
3085;SDS011;52812;48.960;9.108;2023-08-24T00:29:30;11.13;;;9.93;;
3085;SDS011;52812;48.960;9.108;2023-08-24T00:31:56;12.53;;;10.17;;
3085;SDS011;52812;48.960;9.108;2023-08-24T00:34:22;11.80;;;9.90;;
3085;SDS011;52812;48.960;9.108;2023-08-24T00:36:48;11.73;;;9.67;;
3085;SDS011;52812;48.960;9.108;2023-08-24T00:39:13;10.50;;;9.40;;
3085;SDS011;52812;48.960;9.108;2023-08-24T00:41:40;11.17;;;10.07;;
3085;SDS011;52812;48.960;9.108;2023-08-24T00:44:06;14.37;;;10.40;;
3085;SDS011;52812;48.960;9.108;2023-08-24T00:46:32;10.77;;;9.67;;
3085;SDS011;52812;48.960;9.108;2023-08-24T00:48:58;11.10;;;9.97;;
3085;SDS011;52812;48.960;9.108;2023-08-24T00:51:24;10.90;;;9.80;;
3085;SDS011;52812;48.960;9.108;2023-08-24T00:53:50;11.40;;;9.97;;
3085;SDS011;52812;48.960;9.108;2023-08-24T00:56:16;11.73;;;10.17;;
3085;SDS011;52812;48.960;9.108;2023-08-24T00:58:42;11.30;;;9.43;;
3085;SDS011;52812;48.960;9.108;2023-08-24T01:01:09;11.67;;;9.77;;
3085;SDS011;52812;48.960;9.108;2023-08-24T01:03:35;10.80;;;9.63;;
3085;SDS011;52812;48.960;9.108;2023-08-24T01:06:00;11.60;;;9.30;;
3085;SDS011;52812;48.960;9.108;2023-08-24T01:08:26;12.63;;;10.47;;
3085;SDS011;52812;48.960;9.108;2023-08-24T01:13:31;13.37;;;11.13;;
3085;SDS011;52812;48.960;9.108;2023-08-24T01:16:16;12.80;;;10.20;;
3085;SDS011;52812;48.960;9.108;2023-08-24T01:18:45;10.13;;;9.00;;
3085;SDS011;52812;48.960;9.108;2023-08-24T01:21:12;12.73;;;10.03;;
3085;SDS011;52812;48.960;9.108;2023-08-24T01:26:07;12.90;;;9.93;;
3085;SDS011;52812;48.960;9.108;2023-08-24T01:28:42;13.00;;;11.03;;
3085;SDS011;52812;48.960;9.108;2023-08-24T01:31:09;12.93;;;10.40;;
3085;SDS011;52812;48.960;9.108;2023-08-24T01:33:35;13.03;;;11.17;;
3085;SDS011;52812;48.960;9.108;2023-08-24T01:36:00;12.73;;;11.30;;
3085;SDS011;52812;48.960;9.108;2023-08-24T01:38:26;12.27;;;11.03;;
3085;SDS011;52812;48.960;9.108;2023-08-24T01:40:53;14.23;;;12.00;;
3085;SDS011;52812;48.960;9.108;2023-08-24T01:43:23;10.80;;;9.57;;
3085;SDS011;52812;48.960;9.108;2023-08-24T01:45:53;11.57;;;9.20;;
3085;SDS011;52812;48.960;9.108;2023-08-24T01:48:21;13.03;;;9.70;;
3085;SDS011;52812;48.960;9.108;2023-08-24T01:50:47;11.00;;;9.60;;
3085;SDS011;52812;48.960;9.108;2023-08-24T01:53:14;10.90;;;9.80;;
3085;SDS011;52812;48.960;9.108;2023-08-24T01:55:39;11.60;;;10.40;;
3085;SDS011;52812;48.960;9.108;2023-08-24T01:58:06;12.07;;;10.70;;
3085;SDS011;52812;48.960;9.108;2023-08-24T02:00:31;12.50;;;11.00;;
3085;SDS011;52812;48.960;9.108;2023-08-24T02:02:57;12.20;;;10.37;;
3085;SDS011;52812;48.960;9.108;2023-08-24T02:05:23;12.20;;;10.20;;
3085;SDS011;52812;48.960;9.108;2023-08-24T02:07:52;11.80;;;10.20;;
3085;SDS011;52812;48.960;9.108;2023-08-24T02:10:18;12.77;;;10.90;;
3085;SDS011;52812;48.960;9.108;2023-08-24T02:12:44;11.50;;;9.80;;
3085;SDS011;52812;48.960;9.108;2023-08-24T02:15:10;16.37;;;9.43;;
3085;SDS011;52812;48.960;9.108;2023-08-24T02:17:35;11.83;;;9.97;;
3085;SDS011;52812;48.960;9.108;2023-08-24T02:20:01;12.47;;;10.27;;
3085;SDS011;52812;48.960;9.108;2023-08-24T02:22:28;11.07;;;9.97;;
3085;SDS011;52812;48.960;9.108;2023-08-24T02:24:54;11.27;;;10.07;;
3085;SDS011;52812;48.960;9.108;2023-08-24T02:27:19;11.33;;;10.10;;
3085;SDS011;52812;48.960;9.108;2023-08-24T02:29:45;11.80;;;9.60;;
3085;SDS011;52812;48.960;9.108;2023-08-24T02:32:10;13.63;;;11.60;;
3085;SDS011;52812;48.960;9.108;2023-08-24T02:34:36;16.30;;;12.10;;
3085;SDS011;52812;48.960;9.108;2023-08-24T02:37:02;12.53;;;11.23;;
3085;SDS011;52812;48.960;9.108;2023-08-24T02:39:27;12.80;;;11.40;;
3085;SDS011;52812;48.960;9.108;2023-08-24T02:41:53;12.70;;;10.90;;
3085;SDS011;52812;48.960;9.108;2023-08-24T02:44:18;12.43;;;9.97;;
3085;SDS011;52812;48.960;9.108;2023-08-24T02:46:44;11.40;;;10.20;;
3085;SDS011;52812;48.960;9.108;2023-08-24T02:49:10;11.03;;;9.53;;
3085;SDS011;52812;48.960;9.108;2023-08-24T02:51:35;12.93;;;9.87;;
3085;SDS011;52812;48.960;9.108;2023-08-24T02:54:01;13.13;;;9.70;;
3085;SDS011;52812;48.960;9.108;2023-08-24T02:56:27;12.43;;;10.47;;
3085;SDS011;52812;48.960;9.108;2023-08-24T02:58:52;14.80;;;10.40;;
3085;SDS011;52812;48.960;9.108;2023-08-24T03:01:18;13.60;;;10.80;;
3085;SDS011;52812;48.960;9.108;2023-08-24T03:03:43;14.00;;;11.80;;
3085;SDS011;52812;48.960;9.108;2023-08-24T03:06:09;12.90;;;10.90;;
3085;SDS011;52812;48.960;9.108;2023-08-24T03:08:35;11.83;;;10.47;;
3085;SDS011;52812;48.960;9.108;2023-08-24T03:11:01;14.03;;;11.43;;
3085;SDS011;52812;48.960;9.108;2023-08-24T03:13:27;12.20;;;10.90;;
3085;SDS011;52812;48.960;9.108;2023-08-24T03:15:53;12.90;;;10.50;;
3085;SDS011;52812;48.960;9.108;2023-08-24T03:18:19;12.90;;;10.87;;
3085;SDS011;52812;48.960;9.108;2023-08-24T03:20:45;11.50;;;9.60;;
3085;SDS011;52812;48.960;9.108;2023-08-24T03:23:12;13.23;;;10.20;;
3085;SDS011;52812;48.960;9.108;2023-08-24T03:25:38;13.23;;;10.40;;
3085;SDS011;52812;48.960;9.108;2023-08-24T03:28:05;12.10;;;10.57;;
3085;SDS011;52812;48.960;9.108;2023-08-24T03:30:33;11.37;;;10.13;;
3085;SDS011;52812;48.960;9.108;2023-08-24T03:33:00;12.03;;;10.30;;
3085;SDS011;52812;48.960;9.108;2023-08-24T03:35:26;12.70;;;10.77;;
3085;SDS011;52812;48.960;9.108;2023-08-24T03:37:51;13.53;;;10.77;;
3085;SDS011;52812;48.960;9.108;2023-08-24T03:40:17;11.60;;;10.50;;
3085;SDS011;52812;48.960;9.108;2023-08-24T03:42:43;14.13;;;10.53;;
3085;SDS011;52812;48.960;9.108;2023-08-24T03:45:08;15.67;;;10.83;;
3085;SDS011;52812;48.960;9.108;2023-08-24T03:47:34;13.10;;;10.80;;
3085;SDS011;52812;48.960;9.108;2023-08-24T03:50:00;14.23;;;11.80;;
3085;SDS011;52812;48.960;9.108;2023-08-24T03:52:25;16.17;;;10.87;;
3085;SDS011;52812;48.960;9.108;2023-08-24T03:54:51;13.13;;;11.30;;
3085;SDS011;52812;48.960;9.108;2023-08-24T03:57:16;17.57;;;11.73;;
3085;SDS011;52812;48.960;9.108;2023-08-24T03:59:42;12.30;;;11.00;;
3085;SDS011;52812;48.960;9.108;2023-08-24T04:02:07;14.47;;;11.50;;
3085;SDS011;52812;48.960;9.108;2023-08-24T04:04:33;14.40;;;11.17;;
3085;SDS011;52812;48.960;9.108;2023-08-24T04:06:59;15.00;;;10.77;;
3085;SDS011;52812;48.960;9.108;2023-08-24T04:09:25;13.80;;;11.77;;
3085;SDS011;52812;48.960;9.108;2023-08-24T04:11:50;13.00;;;11.10;;
3085;SDS011;52812;48.960;9.108;2023-08-24T04:14:16;16.83;;;11.67;;
3085;SDS011;52812;48.960;9.108;2023-08-24T04:16:41;11.77;;;10.07;;
3085;SDS011;52812;48.960;9.108;2023-08-24T04:19:07;12.97;;;11.00;;
3085;SDS011;52812;48.960;9.108;2023-08-24T04:21:33;14.93;;;10.63;;
3085;SDS011;52812;48.960;9.108;2023-08-24T04:23:59;14.50;;;11.73;;
3085;SDS011;52812;48.960;9.108;2023-08-24T04:26:24;14.80;;;10.93;;
3085;SDS011;52812;48.960;9.108;2023-08-24T04:28:50;12.50;;;10.90;;
3085;SDS011;52812;48.960;9.108;2023-08-24T04:31:15;11.37;;;10.17;;
3085;SDS011;52812;48.960;9.108;2023-08-24T04:33:41;13.20;;;9.83;;
3085;SDS011;52812;48.960;9.108;2023-08-24T04:36:07;10.47;;;9.27;;
3085;SDS011;52812;48.960;9.108;2023-08-24T04:38:33;13.80;;;10.10;;
3085;SDS011;52812;48.960;9.108;2023-08-24T04:40:59;14.30;;;11.33;;
3085;SDS011;52812;48.960;9.108;2023-08-24T04:43:24;12.37;;;10.63;;
3085;SDS011;52812;48.960;9.108;2023-08-24T04:45:51;13.80;;;10.40;;
3085;SDS011;52812;48.960;9.108;2023-08-24T04:48:22;12.37;;;11.07;;
3085;SDS011;52812;48.960;9.108;2023-08-24T04:50:48;11.00;;;9.90;;
3085;SDS011;52812;48.960;9.108;2023-08-24T04:53:18;12.73;;;11.27;;
3085;SDS011;52812;48.960;9.108;2023-08-24T04:55:44;10.90;;;9.80;;
3085;SDS011;52812;48.960;9.108;2023-08-24T04:58:11;11.73;;;10.50;;
3085;SDS011;52812;48.960;9.108;2023-08-24T05:00:38;12.17;;;10.50;;
3085;SDS011;52812;48.960;9.108;2023-08-24T05:03:04;13.20;;;10.70;;
3085;SDS011;52812;48.960;9.108;2023-08-24T05:05:30;12.27;;;10.93;;
3085;SDS011;52812;48.960;9.108;2023-08-24T05:08:00;14.53;;;10.97;;
3085;SDS011;52812;48.960;9.108;2023-08-24T05:10:31;12.13;;;10.33;;
3085;SDS011;52812;48.960;9.108;2023-08-24T05:12:58;12.73;;;10.40;;
3085;SDS011;52812;48.960;9.108;2023-08-24T05:15:23;11.50;;;10.00;;
3085;SDS011;52812;48.960;9.108;2023-08-24T05:17:49;11.30;;;9.40;;
3085;SDS011;52812;48.960;9.108;2023-08-24T05:20:17;11.23;;;9.73;;
3085;SDS011;52812;48.960;9.108;2023-08-24T05:22:43;11.97;;;9.80;;
3085;SDS011;52812;48.960;9.108;2023-08-24T05:25:09;11.37;;;9.87;;
3085;SDS011;52812;48.960;9.108;2023-08-24T05:27:34;12.27;;;11.00;;
3085;SDS011;52812;48.960;9.108;2023-08-24T05:30:00;11.57;;;9.87;;
3085;SDS011;52812;48.960;9.108;2023-08-24T05:32:25;11.53;;;10.33;;
3085;SDS011;52812;48.960;9.108;2023-08-24T05:34:51;11.00;;;9.90;;
3085;SDS011;52812;48.960;9.108;2023-08-24T05:37:16;12.40;;;10.30;;
3085;SDS011;52812;48.960;9.108;2023-08-24T05:39:42;12.47;;;10.33;;
3085;SDS011;52812;48.960;9.108;2023-08-24T05:42:08;12.43;;;10.30;;
3085;SDS011;52812;48.960;9.108;2023-08-24T05:44:34;14.33;;;10.80;;
3085;SDS011;52812;48.960;9.108;2023-08-24T05:47:00;12.90;;;10.60;;
3085;SDS011;52812;48.960;9.108;2023-08-24T05:49:25;10.87;;;9.67;;
3085;SDS011;52812;48.960;9.108;2023-08-24T05:51:51;11.60;;;9.17;;
3085;SDS011;52812;48.960;9.108;2023-08-24T05:54:17;9.87;;;8.87;;
3085;SDS011;52812;48.960;9.108;2023-08-24T05:56:46;11.40;;;9.00;;
3085;SDS011;52812;48.960;9.108;2023-08-24T05:59:12;11.70;;;9.17;;
3085;SDS011;52812;48.960;9.108;2023-08-24T06:01:38;9.63;;;8.37;;
3085;SDS011;52812;48.960;9.108;2023-08-24T06:04:05;9.37;;;8.30;;
3085;SDS011;52812;48.960;9.108;2023-08-24T06:06:30;8.90;;;8.00;;
3085;SDS011;52812;48.960;9.108;2023-08-24T06:08:56;8.70;;;7.90;;
3085;SDS011;52812;48.960;9.108;2023-08-24T06:11:23;9.30;;;7.67;;
3085;SDS011;52812;48.960;9.108;2023-08-24T06:13:49;8.40;;;7.60;;
3085;SDS011;52812;48.960;9.108;2023-08-24T06:16:14;8.17;;;7.37;;
3085;SDS011;52812;48.960;9.108;2023-08-24T06:18:40;9.50;;;7.70;;
3085;SDS011;52812;48.960;9.108;2023-08-24T06:21:05;8.33;;;7.40;;
3085;SDS011;52812;48.960;9.108;2023-08-24T06:23:33;9.27;;;8.37;;
3085;SDS011;52812;48.960;9.108;2023-08-24T06:25:58;8.23;;;7.43;;
3085;SDS011;52812;48.960;9.108;2023-08-24T06:28:26;9.00;;;8.10;;
3085;SDS011;52812;48.960;9.108;2023-08-24T06:30:51;8.57;;;7.67;;
3085;SDS011;52812;48.960;9.108;2023-08-24T06:33:19;8.63;;;7.83;;
3085;SDS011;52812;48.960;9.108;2023-08-24T06:35:45;8.70;;;7.90;;
3085;SDS011;52812;48.960;9.108;2023-08-24T06:38:11;8.43;;;7.57;;
3085;SDS011;52812;48.960;9.108;2023-08-24T06:40:36;8.73;;;7.83;;
3085;SDS011;52812;48.960;9.108;2023-08-24T06:43:02;9.13;;;8.10;;
3085;SDS011;52812;48.960;9.108;2023-08-24T06:45:27;8.70;;;7.80;;
3085;SDS011;52812;48.960;9.108;2023-08-24T06:47:53;10.53;;;8.17;;
3085;SDS011;52812;48.960;9.108;2023-08-24T06:50:19;8.90;;;7.30;;
3085;SDS011;52812;48.960;9.108;2023-08-24T06:52:45;9.37;;;8.47;;
3085;SDS011;52812;48.960;9.108;2023-08-24T06:55:12;8.70;;;7.90;;
3085;SDS011;52812;48.960;9.108;2023-08-24T06:57:38;8.63;;;7.73;;
3085;SDS011;52812;48.960;9.108;2023-08-24T07:00:03;8.87;;;7.60;;
3085;SDS011;52812;48.960;9.108;2023-08-24T07:02:39;12.93;;;7.90;;
3085;SDS011;52812;48.960;9.108;2023-08-24T07:05:05;8.83;;;7.63;;
3085;SDS011;52812;48.960;9.108;2023-08-24T07:07:33;10.53;;;8.03;;
3085;SDS011;52812;48.960;9.108;2023-08-24T07:09:59;7.80;;;7.10;;
3085;SDS011;52812;48.960;9.108;2023-08-24T07:12:25;8.50;;;7.30;;
3085;SDS011;52812;48.960;9.108;2023-08-24T07:14:50;9.20;;;8.30;;
3085;SDS011;52812;48.960;9.108;2023-08-24T07:17:16;10.60;;;7.87;;
3085;SDS011;52812;48.960;9.108;2023-08-24T07:19:41;10.07;;;7.63;;
3085;SDS011;52812;48.960;9.108;2023-08-24T07:22:07;9.43;;;7.70;;
3085;SDS011;52812;48.960;9.108;2023-08-24T07:24:33;8.53;;;7.70;;
3085;SDS011;52812;48.960;9.108;2023-08-24T07:27:01;9.77;;;7.83;;
3085;SDS011;52812;48.960;9.108;2023-08-24T07:29:27;9.50;;;7.70;;
3085;SDS011;52812;48.960;9.108;2023-08-24T07:31:53;8.43;;;7.60;;
3085;SDS011;52812;48.960;9.108;2023-08-24T07:34:18;8.90;;;7.77;;
3085;SDS011;52812;48.960;9.108;2023-08-24T07:36:44;8.07;;;7.23;;
3085;SDS011;52812;48.960;9.108;2023-08-24T07:39:11;9.10;;;6.67;;
3085;SDS011;52812;48.960;9.108;2023-08-24T07:41:37;11.23;;;6.93;;
3085;SDS011;52812;48.960;9.108;2023-08-24T07:44:03;7.63;;;6.83;;
3085;SDS011;52812;48.960;9.108;2023-08-24T07:46:29;7.40;;;6.70;;
3085;SDS011;52812;48.960;9.108;2023-08-24T07:48:54;7.40;;;6.70;;
3085;SDS011;52812;48.960;9.108;2023-08-24T07:51:21;7.63;;;6.00;;
3085;SDS011;52812;48.960;9.108;2023-08-24T07:53:46;6.30;;;5.70;;
3085;SDS011;52812;48.960;9.108;2023-08-24T07:56:12;6.40;;;5.80;;
3085;SDS011;52812;48.960;9.108;2023-08-24T07:58:37;7.73;;;5.90;;
3085;SDS011;52812;48.960;9.108;2023-08-24T08:01:03;8.80;;;5.20;;
3085;SDS011;52812;48.960;9.108;2023-08-24T08:03:29;7.90;;;5.60;;
3085;SDS011;52812;48.960;9.108;2023-08-24T08:05:57;5.90;;;5.30;;
3085;SDS011;52812;48.960;9.108;2023-08-24T08:08:23;5.70;;;5.20;;
3085;SDS011;52812;48.960;9.108;2023-08-24T08:10:55;5.40;;;4.90;;
3085;SDS011;52812;48.960;9.108;2023-08-24T08:13:24;5.60;;;5.10;;
3085;SDS011;52812;48.960;9.108;2023-08-24T08:15:49;9.43;;;5.37;;
3085;SDS011;52812;48.960;9.108;2023-08-24T08:18:15;6.07;;;5.40;;
3085;SDS011;52812;48.960;9.108;2023-08-24T08:20:41;6.23;;;5.30;;
3085;SDS011;52812;48.960;9.108;2023-08-24T08:23:07;8.80;;;4.73;;
3085;SDS011;52812;48.960;9.108;2023-08-24T08:25:32;5.17;;;4.67;;
3085;SDS011;52812;48.960;9.108;2023-08-24T08:27:58;5.80;;;5.20;;
3085;SDS011;52812;48.960;9.108;2023-08-24T08:30:24;6.33;;;4.80;;
3085;SDS011;52812;48.960;9.108;2023-08-24T08:32:49;5.27;;;4.20;;
3085;SDS011;52812;48.960;9.108;2023-08-24T08:35:17;5.20;;;4.80;;
3085;SDS011;52812;48.960;9.108;2023-08-24T08:37:43;5.10;;;4.60;;
3085;SDS011;52812;48.960;9.108;2023-08-24T08:40:09;6.33;;;5.20;;
3085;SDS011;52812;48.960;9.108;2023-08-24T08:42:35;5.30;;;4.90;;
3085;SDS011;52812;48.960;9.108;2023-08-24T08:45:03;8.23;;;4.93;;
3085;SDS011;52812;48.960;9.108;2023-08-24T08:47:33;6.00;;;5.10;;
3085;SDS011;52812;48.960;9.108;2023-08-24T08:49:59;5.30;;;4.80;;
3085;SDS011;52812;48.960;9.108;2023-08-24T08:52:28;6.60;;;5.90;;
3085;SDS011;52812;48.960;9.108;2023-08-24T08:54:54;6.67;;;5.50;;
3085;SDS011;52812;48.960;9.108;2023-08-24T08:57:21;5.90;;;5.33;;
3085;SDS011;52812;48.960;9.108;2023-08-24T08:59:49;9.63;;;5.40;;
3085;SDS011;52812;48.960;9.108;2023-08-24T09:02:17;6.83;;;6.10;;
3085;SDS011;52812;48.960;9.108;2023-08-24T09:04:45;8.50;;;6.00;;
3085;SDS011;52812;48.960;9.108;2023-08-24T09:07:13;6.17;;;5.57;;
3085;SDS011;52812;48.960;9.108;2023-08-24T09:09:39;6.90;;;6.00;;
3085;SDS011;52812;48.960;9.108;2023-08-24T09:12:05;6.83;;;5.87;;
3085;SDS011;52812;48.960;9.108;2023-08-24T09:14:32;6.80;;;5.80;;
3085;SDS011;52812;48.960;9.108;2023-08-24T09:16:58;7.43;;;5.90;;
3085;SDS011;52812;48.960;9.108;2023-08-24T09:19:27;7.77;;;5.80;;
3085;SDS011;52812;48.960;9.108;2023-08-24T09:22:00;7.67;;;6.07;;
3085;SDS011;52812;48.960;9.108;2023-08-24T09:24:30;6.67;;;6.00;;
3085;SDS011;52812;48.960;9.108;2023-08-24T09:26:57;9.43;;;6.17;;
3085;SDS011;52812;48.960;9.108;2023-08-24T09:29:22;8.17;;;6.53;;
3085;SDS011;52812;48.960;9.108;2023-08-24T09:31:49;9.37;;;5.97;;
3085;SDS011;52812;48.960;9.108;2023-08-24T09:34:19;6.80;;;6.00;;
3085;SDS011;52812;48.960;9.108;2023-08-24T09:36:45;6.20;;;5.57;;
3085;SDS011;52812;48.960;9.108;2023-08-24T09:39:11;8.83;;;6.03;;
3085;SDS011;52812;48.960;9.108;2023-08-24T09:41:41;6.87;;;6.17;;
3085;SDS011;52812;48.960;9.108;2023-08-24T09:44:14;7.43;;;6.00;;
3085;SDS011;52812;48.960;9.108;2023-08-24T09:46:42;8.10;;;6.00;;
3085;SDS011;52812;48.960;9.108;2023-08-24T09:49:08;7.00;;;6.30;;
3085;SDS011;52812;48.960;9.108;2023-08-24T09:51:35;7.23;;;5.60;;
3085;SDS011;52812;48.960;9.108;2023-08-24T09:54:02;6.47;;;5.87;;
3085;SDS011;52812;48.960;9.108;2023-08-24T09:56:31;6.90;;;6.20;;
3085;SDS011;52812;48.960;9.108;2023-08-24T09:59:00;8.40;;;6.50;;
3085;SDS011;52812;48.960;9.108;2023-08-24T10:01:28;9.37;;;6.40;;
3085;SDS011;52812;48.960;9.108;2023-08-24T10:03:55;8.20;;;6.17;;
3085;SDS011;52812;48.960;9.108;2023-08-24T10:06:23;6.63;;;6.00;;
3085;SDS011;52812;48.960;9.108;2023-08-24T10:08:52;6.63;;;5.93;;
3085;SDS011;52812;48.960;9.108;2023-08-24T10:11:25;6.77;;;6.17;;
3085;SDS011;52812;48.960;9.108;2023-08-24T10:13:58;7.90;;;6.80;;
3085;SDS011;52812;48.960;9.108;2023-08-24T10:16:32;6.47;;;5.87;;
3085;SDS011;52812;48.960;9.108;2023-08-24T10:19:00;7.80;;;6.70;;
3085;SDS011;52812;48.960;9.108;2023-08-24T10:21:28;7.07;;;6.20;;
3085;SDS011;52812;48.960;9.108;2023-08-24T10:23:54;6.50;;;5.90;;
3085;SDS011;52812;48.960;9.108;2023-08-24T10:26:22;7.07;;;6.20;;
3085;SDS011;52812;48.960;9.108;2023-08-24T10:28:49;7.97;;;6.67;;
3085;SDS011;52812;48.960;9.108;2023-08-24T10:31:16;7.27;;;6.60;;
3085;SDS011;52812;48.960;9.108;2023-08-24T10:33:42;7.23;;;6.53;;
3085;SDS011;52812;48.960;9.108;2023-08-24T10:36:12;7.73;;;7.00;;
3085;SDS011;52812;48.960;9.108;2023-08-24T10:38:42;7.97;;;6.90;;
3085;SDS011;52812;48.960;9.108;2023-08-24T10:41:08;7.43;;;6.63;;
3085;SDS011;52812;48.960;9.108;2023-08-24T10:43:37;7.20;;;6.50;;
3085;SDS011;52812;48.960;9.108;2023-08-24T10:46:03;6.90;;;6.17;;
3085;SDS011;52812;48.960;9.108;2023-08-24T10:53:55;9.50;;;6.53;;
3085;SDS011;52812;48.960;9.108;2023-08-24T10:56:29;6.90;;;6.23;;
3085;SDS011;52812;48.960;9.108;2023-08-24T10:59:14;12.93;;;7.37;;
3085;SDS011;52812;48.960;9.108;2023-08-24T11:02:00;7.97;;;7.17;;
3085;SDS011;52812;48.960;9.108;2023-08-24T11:04:27;7.30;;;6.70;;
3085;SDS011;52812;48.960;9.108;2023-08-24T11:06:55;8.00;;;6.67;;
3085;SDS011;52812;48.960;9.108;2023-08-24T11:09:27;7.73;;;7.03;;
3085;SDS011;52812;48.960;9.108;2023-08-24T11:12:11;7.57;;;6.83;;
3085;SDS011;52812;48.960;9.108;2023-08-24T11:14:48;7.63;;;6.93;;
3085;SDS011;52812;48.960;9.108;2023-08-24T11:17:20;7.73;;;7.07;;
3085;SDS011;52812;48.960;9.108;2023-08-24T11:19:50;6.93;;;6.23;;
3085;SDS011;52812;48.960;9.108;2023-08-24T11:22:17;8.17;;;7.37;;
3085;SDS011;52812;48.960;9.108;2023-08-24T11:24:43;8.37;;;7.57;;
3085;SDS011;52812;48.960;9.108;2023-08-24T11:27:15;7.00;;;6.30;;
3085;SDS011;52812;48.960;9.108;2023-08-24T11:29:41;7.10;;;6.40;;
3085;SDS011;52812;48.960;9.108;2023-08-24T11:32:07;8.10;;;6.47;;
3085;SDS011;52812;48.960;9.108;2023-08-24T11:34:36;7.20;;;6.50;;
3085;SDS011;52812;48.960;9.108;2023-08-24T11:37:02;7.80;;;7.00;;
3085;SDS011;52812;48.960;9.108;2023-08-24T11:39:28;7.03;;;6.40;;
3085;SDS011;52812;48.960;9.108;2023-08-24T11:41:58;7.60;;;6.90;;
3085;SDS011;52812;48.960;9.108;2023-08-24T11:44:25;8.10;;;6.77;;
3085;SDS011;52812;48.960;9.108;2023-08-24T11:46:51;7.83;;;6.90;;
3085;SDS011;52812;48.960;9.108;2023-08-24T11:49:17;7.50;;;6.80;;
3085;SDS011;52812;48.960;9.108;2023-08-24T11:51:42;9.67;;;7.30;;
3085;SDS011;52812;48.960;9.108;2023-08-24T11:54:08;7.80;;;7.00;;
3085;SDS011;52812;48.960;9.108;2023-08-24T11:56:41;8.93;;;7.30;;
3085;SDS011;52812;48.960;9.108;2023-08-24T11:59:10;7.30;;;6.60;;
3085;SDS011;52812;48.960;9.108;2023-08-24T12:01:41;7.80;;;7.00;;
3085;SDS011;52812;48.960;9.108;2023-08-24T12:04:07;7.90;;;7.10;;
3085;SDS011;52812;48.960;9.108;2023-08-24T12:06:33;8.03;;;6.37;;
3085;SDS011;52812;48.960;9.108;2023-08-24T12:09:05;7.80;;;6.90;;
3085;SDS011;52812;48.960;9.108;2023-08-24T12:11:36;7.73;;;6.60;;
3085;SDS011;52812;48.960;9.108;2023-08-24T12:14:05;8.07;;;7.27;;
3085;SDS011;52812;48.960;9.108;2023-08-24T12:16:34;7.63;;;6.83;;
3085;SDS011;52812;48.960;9.108;2023-08-24T12:19:00;8.20;;;7.30;;
3085;SDS011;52812;48.960;9.108;2023-08-24T12:21:30;8.13;;;7.33;;
3085;SDS011;52812;48.960;9.108;2023-08-24T12:26:28;7.47;;;6.77;;
3085;SDS011;52812;48.960;9.108;2023-08-24T12:29:01;8.00;;;7.20;;
3085;SDS011;52812;48.960;9.108;2023-08-24T12:31:31;9.60;;;7.47;;
3085;SDS011;52812;48.960;9.108;2023-08-24T12:34:01;7.70;;;7.00;;
3085;SDS011;52812;48.960;9.108;2023-08-24T12:36:35;8.30;;;7.17;;
3085;SDS011;52812;48.960;9.108;2023-08-24T12:39:01;8.10;;;7.30;;
3085;SDS011;52812;48.960;9.108;2023-08-24T12:41:29;9.23;;;7.83;;
3085;SDS011;52812;48.960;9.108;2023-08-24T12:43:55;8.43;;;7.40;;
3085;SDS011;52812;48.960;9.108;2023-08-24T12:46:20;8.93;;;7.20;;
3085;SDS011;52812;48.960;9.108;2023-08-24T12:48:46;8.13;;;7.33;;
3085;SDS011;52812;48.960;9.108;2023-08-24T12:51:11;7.73;;;7.03;;
3085;SDS011;52812;48.960;9.108;2023-08-24T12:53:37;8.33;;;7.40;;
3085;SDS011;52812;48.960;9.108;2023-08-24T12:56:03;8.80;;;7.63;;
3085;SDS011;52812;48.960;9.108;2023-08-24T12:58:28;8.43;;;7.63;;
3085;SDS011;52812;48.960;9.108;2023-08-24T13:00:54;10.40;;;7.50;;
3085;SDS011;52812;48.960;9.108;2023-08-24T13:03:20;8.53;;;7.67;;
3085;SDS011;52812;48.960;9.108;2023-08-24T13:05:45;8.20;;;7.43;;
3085;SDS011;52812;48.960;9.108;2023-08-24T13:08:12;7.33;;;6.63;;
3085;SDS011;52812;48.960;9.108;2023-08-24T13:14:04;9.60;;;7.40;;
3085;SDS011;52812;48.960;9.108;2023-08-24T13:16:30;7.40;;;6.70;;
3085;SDS011;52812;48.960;9.108;2023-08-24T13:18:55;8.33;;;7.50;;
3085;SDS011;52812;48.960;9.108;2023-08-24T13:21:21;7.73;;;7.00;;
3085;SDS011;52812;48.960;9.108;2023-08-24T13:23:47;12.77;;;7.13;;
3085;SDS011;52812;48.960;9.108;2023-08-24T13:26:19;10.47;;;7.57;;
3085;SDS011;52812;48.960;9.108;2023-08-24T13:28:49;8.63;;;7.73;;
3085;SDS011;52812;48.960;9.108;2023-08-24T13:31:15;8.10;;;7.13;;
3085;SDS011;52812;48.960;9.108;2023-08-24T13:33:41;10.10;;;7.50;;
3085;SDS011;52812;48.960;9.108;2023-08-24T13:36:07;7.67;;;6.93;;
3085;SDS011;52812;48.960;9.108;2023-08-24T13:38:32;9.67;;;7.00;;
3085;SDS011;52812;48.960;9.108;2023-08-24T13:40:58;8.00;;;7.20;;
3085;SDS011;52812;48.960;9.108;2023-08-24T13:43:23;8.63;;;7.00;;
3085;SDS011;52812;48.960;9.108;2023-08-24T13:45:49;10.50;;;7.40;;
3085;SDS011;52812;48.960;9.108;2023-08-24T13:48:14;7.63;;;6.80;;
3085;SDS011;52812;48.960;9.108;2023-08-24T13:50:41;7.90;;;7.10;;
3085;SDS011;52812;48.960;9.108;2023-08-24T13:53:07;7.60;;;6.90;;
3085;SDS011;52812;48.960;9.108;2023-08-24T13:55:32;8.17;;;7.47;;
3085;SDS011;52812;48.960;9.108;2023-08-24T13:57:58;8.90;;;7.20;;
3085;SDS011;52812;48.960;9.108;2023-08-24T14:00:24;8.83;;;7.67;;
3085;SDS011;52812;48.960;9.108;2023-08-24T14:02:50;8.23;;;7.43;;
3085;SDS011;52812;48.960;9.108;2023-08-24T14:05:16;9.17;;;7.37;;
3085;SDS011;52812;48.960;9.108;2023-08-24T14:07:41;9.60;;;7.30;;
3085;SDS011;52812;48.960;9.108;2023-08-24T14:10:07;7.93;;;7.13;;
3085;SDS011;52812;48.960;9.108;2023-08-24T14:12:33;9.20;;;7.50;;
3085;SDS011;52812;48.960;9.108;2023-08-24T14:14:59;9.17;;;6.93;;
3085;SDS011;52812;48.960;9.108;2023-08-24T14:17:25;7.73;;;6.67;;
3085;SDS011;52812;48.960;9.108;2023-08-24T14:19:50;8.73;;;6.47;;
3085;SDS011;52812;48.960;9.108;2023-08-24T14:22:16;8.10;;;7.30;;
3085;SDS011;52812;48.960;9.108;2023-08-24T14:24:41;8.50;;;6.57;;
3085;SDS011;52812;48.960;9.108;2023-08-24T14:27:07;8.43;;;7.30;;
3085;SDS011;52812;48.960;9.108;2023-08-24T14:29:32;7.57;;;6.83;;
3085;SDS011;52812;48.960;9.108;2023-08-24T14:31:58;9.10;;;7.00;;
3085;SDS011;52812;48.960;9.108;2023-08-24T14:34:24;8.07;;;6.83;;
3085;SDS011;52812;48.960;9.108;2023-08-24T14:36:49;11.10;;;6.93;;
3085;SDS011;52812;48.960;9.108;2023-08-24T14:39:15;8.10;;;7.03;;
3085;SDS011;52812;48.960;9.108;2023-08-24T14:41:40;8.60;;;7.30;;
3085;SDS011;52812;48.960;9.108;2023-08-24T14:44:06;7.63;;;6.83;;
3085;SDS011;52812;48.960;9.108;2023-08-24T14:46:31;7.90;;;7.20;;
3085;SDS011;52812;48.960;9.108;2023-08-24T14:48:58;9.90;;;7.63;;
3085;SDS011;52812;48.960;9.108;2023-08-24T14:51:23;8.33;;;6.80;;
3085;SDS011;52812;48.960;9.108;2023-08-24T14:53:49;8.63;;;7.73;;
3085;SDS011;52812;48.960;9.108;2023-08-24T14:56:14;8.20;;;7.40;;
3085;SDS011;52812;48.960;9.108;2023-08-24T14:58:40;8.00;;;7.20;;
3085;SDS011;52812;48.960;9.108;2023-08-24T15:01:06;9.23;;;7.30;;
3085;SDS011;52812;48.960;9.108;2023-08-24T15:03:31;17.20;;;7.90;;
3085;SDS011;52812;48.960;9.108;2023-08-24T15:08:29;12.43;;;8.27;;